Flight Track Log - Related Links

Times and Time Zones

All times are in EDT time to prevent confusion due to time zone crossing. See the ANE8022 flight status page for this flight to view local times or setup timezone preferences in your user account.

Time Position Orientation Groundspeed Altitude Reporting Facility
EDT Latitude Longitude Course Direction KTS MPH feet Rate Location/Type
Tue 05:55:48 PM 40.4850 -3.5480 66° East 128 147 2,000  Level FlightAware ADS-B
Tue 05:56:03 PM 40.4790 -3.5410 138° Southeast 126 145 2,500 1,950 Climbing FlightAware ADS-B
Tue 05:56:28 PM 40.4660 -3.5270 141° Southeast 144 166 3,300 1,418 Climbing FlightAware ADS-B
Tue 05:56:58 PM 40.4480 -3.5100 144° Southeast 172 198 3,800 1,091 Climbing FlightAware ADS-B
Tue 05:57:23 PM 40.4320 -3.4940 143° Southeast 183 211 4,300 1,418 Climbing FlightAware ADS-B
Tue 05:57:53 PM 40.4120 -3.4740 143° Southeast 187 215 5,100 1,700 Climbing FlightAware ADS-B
Tue 05:58:23 PM 40.3920 -3.4530 141° Southeast 185 213 6,000 1,636 Climbing FlightAware ADS-B
Tue 05:58:48 PM 40.3730 -3.4340 143° Southeast 192 221 6,600 1,418 Climbing FlightAware ADS-B
Tue 05:59:18 PM 40.3520 -3.4120 141° Southeast 198 228 7,300 1,309 Climbing FlightAware ADS-B
Tue 05:59:43 PM 40.3350 -3.3940 141° Southeast 202 232 7,800 1,350 Climbing FlightAware ADS-B
Tue 05:59:58 PM 40.3220 -3.3840 150° Southeast 197 227 8,200 1,333 Climbing FlightAware ADS-B
Tue 06:00:28 PM 40.2970 -3.3710 158° South 197 227 8,800 1,091 Climbing FlightAware ADS-B
Tue 06:00:53 PM 40.2760 -3.3610 160° South 204 235 9,200 1,091 Climbing FlightAware ADS-B
Tue 06:01:23 PM 40.2490 -3.3500 163° South 199 229 9,800 1,114 Climbing FlightAware ADS-B
Tue 06:02:03 PM 40.2120 -3.3580 189° South 196 226 10,500 1,129 Climbing FlightAware ADS-B
Tue 06:02:48 PM 40.1700 -3.3680 190° South 201 231 11,400 1,129 Climbing FlightAware ADS-B
Tue 06:03:28 PM 40.1330 -3.3770 191° South 203 234 12,100 988 Climbing FlightAware ADS-B
Tue 06:04:13 PM 40.0920 -3.3880 192° South 207 238 12,800 988 Climbing FlightAware ADS-B
Tue 06:04:53 PM 40.0530 -3.3970 190° South 208 239 13,500 975 Climbing FlightAware ADS-B
Tue 06:05:33 PM 40.0160 -3.4060 191° South 207 238 14,100 918 Climbing FlightAware ADS-B
Tue 06:06:18 PM 39.9730 -3.4170 191° South 208 239 14,800 847 Climbing FlightAware ADS-B
Tue 06:06:58 PM 39.9330 -3.4270 191° South 214 246 15,300 776 Climbing FlightAware ADS-B
Tue 06:07:43 PM 39.8900 -3.4370 190° South 215 247 15,900 776 Climbing FlightAware ADS-B
Tue 06:08:23 PM 39.8500 -3.4470 191° South 218 251 16,400 750 Climbing FlightAware ADS-B
Tue 06:09:03 PM 39.8120 -3.4560 190° South 219 252 16,900 771 Climbing FlightAware ADS-B
Tue 06:09:33 PM 39.7820 -3.4660 194° South 210 242 17,300 800 Climbing FlightAware ADS-B
Tue 06:09:48 PM 39.7700 -3.4790 220° Southwest 198 228 17,500 655 Climbing FlightAware ADS-B
Tue 06:10:28 PM 39.7440 -3.5130 225° Southwest 201 231 17,900 635 Climbing FlightAware ADS-B
Tue 06:11:13 PM 39.7160 -3.5500 225° Southwest 199 229 18,400 565 Climbing FlightAware ADS-B
Tue 06:11:53 PM 39.6890 -3.5850 225° Southwest 202 232 18,700 525 Climbing FlightAware ADS-B
Tue 06:12:33 PM 39.6630 -3.6200 226° Southwest 204 235 19,100 494 Climbing FlightAware ADS-B
Tue 06:13:18 PM 39.6330 -3.6590 225° Southwest 205 236 19,400 424 Climbing FlightAware ADS-B
Tue 06:13:58 PM 39.6020 -3.6920 219° Southwest 218 251 19,700 494 Climbing FlightAware ADS-B
Tue 06:14:43 PM 39.5610 -3.7170 205° Southwest 222 255 20,100 494 Climbing FlightAware ADS-B
Tue 06:15:23 PM 39.5230 -3.7400 205° Southwest 223 257 20,400 375 Climbing FlightAware ADS-B
Tue 06:16:03 PM 39.4870 -3.7630 206° Southwest 227 261 20,600 353 Climbing FlightAware ADS-B
Tue 06:16:48 PM 39.4430 -3.7900 205° Southwest 228 262 20,900 282 Climbing FlightAware ADS-B
Tue 06:17:28 PM 39.4050 -3.8130 205° Southwest 238 274 21,000 71 Climbing FlightAware ADS-B
Tue 06:18:13 PM 39.3590 -3.8410 205° Southwest 246 283 21,000  Level FlightAware ADS-B
Tue 06:18:53 PM 39.3160 -3.8670 205° Southwest 249 287 21,000  Level FlightAware ADS-B
Tue 06:19:33 PM 39.2740 -3.8930 206° Southwest 253 291 21,000  Level FlightAware ADS-B
Tue 06:20:18 PM 39.2250 -3.9230 205° Southwest 258 297 21,000  Level FlightAware ADS-B
Tue 06:20:58 PM 39.1810 -3.9500 205° Southwest 263 303 21,000  Level FlightAware ADS-B
Tue 06:21:43 PM 39.1320 -3.9800 205° Southwest 264 304 21,000  Level FlightAware ADS-B
Tue 06:22:23 PM 39.0870 -4.0080 206° Southwest 266 306 21,000  Level FlightAware ADS-B
Tue 06:23:03 PM 39.0460 -4.0330 205° Southwest 263 303 21,000  Level FlightAware ADS-B
Tue 06:23:48 PM 38.9990 -4.0610 205° Southwest 252 290 21,000  Level FlightAware ADS-B
Tue 06:24:28 PM 38.9550 -4.0880 206° Southwest 252 290 21,000  Level FlightAware ADS-B
Tue 06:25:08 PM 38.9110 -4.1140 205° Southwest 250 288 21,000  Level FlightAware ADS-B
Tue 06:25:53 PM 38.8610 -4.1440 205° Southwest 252 290 21,000  Level FlightAware ADS-B
Tue 06:26:33 PM 38.8190 -4.1700 206° Southwest 252 290 21,000  Level FlightAware ADS-B
Tue 06:27:18 PM 38.7690 -4.2000 205° Southwest 251 289 21,000  Level FlightAware ADS-B
Tue 06:28:13 PM 38.7150 -4.2340 206° Southwest 251 289 21,000  Level FlightAware ADS-B
Tue 06:28:53 PM 38.6670 -4.2620 204° Southwest 252 290 21,000  Level FlightAware ADS-B
Tue 06:29:38 PM 38.6130 -4.2940 205° Southwest 263 303 21,000  Level FlightAware ADS-B
Tue 06:30:18 PM 38.5690 -4.3200 205° Southwest 262 302 21,000  Level FlightAware ADS-B
Tue 06:31:08 PM 38.5170 -4.3510 205° Southwest 263 303 21,000  Level FlightAware ADS-B
Tue 06:31:58 PM 38.4620 -4.3840 205° Southwest 263 303 21,000  Level FlightAware ADS-B
Tue 06:32:33 PM 38.4260 -4.4060 206° Southwest 263 303 21,000  Level FlightAware ADS-B
Tue 06:33:13 PM 38.3880 -4.4280 204° Southwest 263 303 21,000  Level FlightAware ADS-B
Tue 06:33:53 PM 38.3510 -4.4510 206° Southwest 263 303 21,000  Level FlightAware ADS-B
Tue 06:34:23 PM 38.3230 -4.4670 204° Southwest 263 303 21,000  Level FlightAware ADS-B
Tue 06:35:03 PM 38.2850 -4.4900 205° Southwest 263 303 21,000  Level FlightAware ADS-B
Tue 06:35:43 PM 38.2480 -4.5120 205° Southwest 263 303 21,000 -187 Level FlightAware ADS-B
Tue 06:38:00 PM 38.1229 -4.5110 180° South  Level Estimated
Tue 06:39:00 PM 38.0681 -4.5105 180° South  Level Estimated
Tue 06:40:00 PM 38.0134 -4.5100 180° South  Level Estimated
Tue 06:41:00 PM 37.9586 -4.5096 180° South  Level Estimated
Tue 06:42:00 PM 37.9038 -4.5091 180° South  Level Estimated
Tue 06:43:00 PM 37.8490 -4.5087 180° South  Level Estimated
Tue 06:44:00 PM 37.7943 -4.5082 180° South  Level Estimated
Tue 06:44:08 PM 37.5730 -4.5710 180° South 324 373 19,300  Level FlightAware ADS-B
Tue 06:44:53 PM 37.5060 -4.5580 171° South 328 377 18,500 -780 Descending FlightAware ADS-B
Tue 06:45:48 PM 37.4260 -4.5430 172° South 324 373 18,000 -316 Descending FlightAware ADS-B
Tue 06:46:28 PM 37.3760 -4.5330 171° South 324 373 18,000 -1,694 Level FlightAware ADS-B
Tue 06:47:13 PM 37.2980 -4.5200 172° South 309 356 15,600 -2,400 Descending FlightAware ADS-B
Tue 06:47:53 PM 37.2430 -4.5090 171° South 307 353 14,600 -1,482 Descending FlightAware ADS-B
Tue 06:48:38 PM 37.1800 -4.4980 172° South 292 336 13,500 -1,553 Descending FlightAware ADS-B
Tue 06:49:18 PM 37.1250 -4.4880 172° South 281 323 12,400 -1,575 Descending FlightAware ADS-B
Tue 06:49:58 PM 37.0730 -4.4780 171° South 276 318 11,400 -1,482 Descending FlightAware ADS-B
Tue 06:50:43 PM 37.0140 -4.4670 172° South 274 315 10,300 -1,457 Descending FlightAware ADS-B
Tue 06:51:08 PM 36.9820 -4.4610 171° South 280 322 9,700 -1,527 Descending FlightAware ADS-B
Tue 06:51:38 PM 36.9440 -4.4540 172° South 276 318 8,900 -1,500 Descending FlightAware ADS-B
Tue 06:52:08 PM 36.9050 -4.4470 172° South 277 319 8,200 -1,527 Descending FlightAware ADS-B
Tue 06:52:33 PM 36.8740 -4.4330 160° South 271 312 7,500 -1,745 Descending FlightAware ADS-B
Tue 06:53:03 PM 36.8420 -4.4130 153° Southeast 258 297 6,600 -1,745 Descending FlightAware ADS-B
Tue 06:53:28 PM 36.8150 -4.3970 155° Southeast 252 290 5,900 -764 Descending FlightAware ADS-B
Tue 06:53:58 PM 36.7830 -4.3770 153° Southeast 236 272 5,900  Level FlightAware ADS-B
Tue 06:54:43 PM 36.7420 -4.3510 153° Southeast 222 255 5,900 -514 Level FlightAware ADS-B
Tue 06:55:08 PM 36.7160 -4.3340 152° Southeast 220 253 5,300 -1,600 Descending FlightAware ADS-B
Tue 06:55:28 PM 36.7000 -4.3240 153° Southeast 220 253 4,700 -1,800 Descending FlightAware ADS-B
Tue 06:58:00 PM 36.6756 -4.4943 260° West  Level Estimated
Tue 06:59:00 PM 36.6749 -4.4991 260° West  Level Estimated
Tue 07:00:00 PM 36.6749 -4.4991 90° East  Level Estimated
Tue 07:01:00 PM 36.6749 -4.4991 90° East  Level Estimated
Tue 07:02:00 PM 36.6749 -4.4991 90° East  Level Estimated
Tue 07:03:00 PM 36.6749 -4.4991 90° East  Level Estimated
Tue 07:04:00 PM 36.6749 -4.4991 90° East  Level Estimated
Tue 07:05:00 PM 36.6749 -4.4991 90° East  Level Estimated
Tue 07:06:00 PM 36.6749 -4.4991 90° East  Level Estimated
Tue 07:07:00 PM 36.6749 -4.4991 90° East  Level Estimated
Tue 07:08:00 PM 36.6749 -4.4991 90° East  Level Estimated
Tue 07:09:00 PM 36.6749 -4.4991 90° East  Level Estimated
Tue 07:10:00 PM 36.6749 -4.4991 90° East  Level Estimated
Tue 07:11:00 PM 36.6749 -4.4991 90° East  Level Estimated
Tue 07:12:00 PM 36.6749 -4.4991 90° East  Level Estimated
Tue 07:13:00 PM 36.6749 -4.4991 90° East  Level Estimated
Tue 07:14:00 PM 36.6749 -4.4991 90° East  Level Estimated
Tue 07:15:00 PM 36.6749 -4.4991 90° East  Level Estimated
Tue 07:16:00 PM 36.6749 -4.4991 90° East  Level Estimated
Tue 07:17:00 PM 36.6749 -4.4991 90° East  Level Estimated
Tue 07:18:00 PM 36.6749 -4.4991 90° East  Level Estimated
Tue 07:19:00 PM 36.6749 -4.4991 90° East  Level Estimated
Tue 07:20:00 PM 36.6749 -4.4991 90° East  Level Estimated
Tue 07:21:00 PM 36.6749 -4.4991 90° East  Level Estimated
Tue 07:22:00 PM 36.6749 -4.4991 90° East  Level Estimated
Tue 07:23:00 PM 36.6749 -4.4991 90° East  Level Estimated

Login

Don't have an account? Register now (free) for customized features, flight alerts, and more!